Time;durP1;ratioP1;P1;durP2;ratioP2;P2;SDS_P1;SDS_P2;PMS_P1;PMS_P2;Temp;Humidity;BMP_temperature;BMP_pressure;BME280_temperature;BME280_humidity;BME280_pressure;Samples;Min_cycle;Max_cycle;Signal;HPM_P1;HPM_P2
2021/06/30 00:01:34;;;;;;;18.63;8.30;;;;;;;17.53;99.54;100122.28;5094127;28;20178;-68
2021/06/30 00:03:59;;;;;;;17.83;8.37;;;;;;;17.55;98.43;100114.06;5092769;28;20657;-68
2021/06/30 00:06:24;;;;;;;11.03;7.37;;;;;;;17.56;98.02;100113.91;5094080;28;20240;-68
2021/06/30 00:08:50;;;;;;;19.03;8.57;;;;;;;17.54;98.79;100115.91;5093455;28;20170;-68
2021/06/30 00:11:16;;;;;;;15.67;8.50;;;;;;;17.57;98.42;100110.22;5094124;28;20561;-68
2021/06/30 00:13:42;;;;;;;16.07;8.20;;;;;;;17.56;98.14;100113.91;5092756;28;20170;-68
2021/06/30 00:16:07;;;;;;;13.57;8.30;;;;;;;17.62;98.18;100112.47;5093962;28;20563;-69
2021/06/30 00:18:33;;;;;;;20.50;8.73;;;;;;;17.67;97.78;100110.22;5094023;28;20185;-67
2021/06/30 00:20:58;;;;;;;19.20;9.20;;;;;;;17.70;98.00;100108.09;5094427;28;20174;-69
2021/06/30 00:23:23;;;;;;;17.93;8.93;;;;;;;17.68;98.12;100099.28;5093778;28;20194;-68
2021/06/30 00:25:49;;;;;;;17.83;8.87;;;;;;;17.70;98.07;100112.63;5093532;28;20221;-68
2021/06/30 00:28:14;;;;;;;13.20;8.70;;;;;;;17.71;98.07;100109.78;5092590;28;20198;-68
2021/06/30 00:30:39;;;;;;;19.73;8.63;;;;;;;17.68;98.01;100104.69;5092266;28;20204;-68
2021/06/30 00:33:05;;;;;;;21.47;8.60;;;;;;;17.68;98.75;100109.22;5076012;28;20174;-68
2021/06/30 00:35:30;;;;;;;16.60;9.63;;;;;;;17.66;99.09;100101.25;5092625;28;20583;-69
2021/06/30 00:37:55;;;;;;;26.70;8.43;;;;;;;17.65;98.63;100110.34;5092296;28;20550;-68
2021/06/30 00:40:21;;;;;;;14.07;8.83;;;;;;;17.67;98.13;100102.97;5092326;28;20174;-68
2021/06/30 00:42:47;;;;;;;14.23;7.90;;;;;;;17.70;98.14;100102.69;5093369;28;20684;-68
2021/06/30 00:45:16;;;;;;;17.40;8.70;;;;;;;17.70;97.71;100108.09;5092292;28;20171;-69
2021/06/30 00:47:41;;;;;;;14.37;7.47;;;;;;;17.74;97.29;100103.25;5093422;28;20190;-67
2021/06/30 00:50:07;;;;;;;18.00;8.20;;;;;;;17.75;97.52;100103.09;5092167;28;20638;-68
2021/06/30 00:52:32;;;;;;;22.67;8.63;;;;;;;17.68;97.84;100111.94;5093542;28;20764;-68
2021/06/30 00:54:58;;;;;;;17.03;8.03;;;;;;;17.68;97.88;100118.19;5093313;28;20265;-69
2021/06/30 00:57:23;;;;;;;13.50;8.00;;;;;;;17.64;98.23;100114.03;5093110;28;20194;-69
2021/06/30 00:59:48;;;;;;;16.10;7.40;;;;;;;17.60;99.07;100117.16;5092621;28;20706;-69
2021/06/30 01:02:14;;;;;;;17.77;8.97;;;;;;;17.58;100.00;100116.47;5092566;28;20674;-69
2021/06/30 01:04:39;;;;;;;13.93;8.30;;;;;;;17.55;100.00;100117.59;5093631;28;20622;-69
2021/06/30 01:07:05;;;;;;;15.90;7.83;;;;;;;17.56;100.00;100118.44;5075024;28;20231;-68
2021/06/30 01:09:31;;;;;;;15.87;7.93;;;;;;;17.69;98.65;100109.09;5093547;28;20179;-68
2021/06/30 01:12:00;;;;;;;14.80;8.83;;;;;;;17.88;97.25;100110.06;5093272;28;20170;-68
2021/06/30 01:14:28;;;;;;;26.33;8.50;;;;;;;17.77;97.80;100114.59;5093098;28;20645;-68
2021/06/30 01:16:53;;;;;;;18.47;8.60;;;;;;;17.69;98.66;100110.94;5074088;28;20239;-68
2021/06/30 01:19:20;;;;;;;13.73;8.43;;;;;;;17.73;98.16;100113.19;5092162;28;20174;-68
2021/06/30 01:21:46;;;;;;;11.23;8.70;;;;;;;17.67;98.34;100108.38;5074025;28;20162;-68
2021/06/30 01:24:11;;;;;;;18.07;8.33;;;;;;;17.70;98.32;100105.38;5090739;28;20224;-68
2021/06/30 01:26:37;;;;;;;14.40;8.93;;;;;;;17.62;99.44;100107.06;5091163;28;20217;-68
2021/06/30 01:29:02;;;;;;;19.60;8.93;;;;;;;17.56;100.00;100105.81;5090944;28;20577;-68
2021/06/30 01:31:27;;;;;;;15.20;9.30;;;;;;;17.56;99.76;100096.88;5092235;28;20204;-69
2021/06/30 01:33:53;;;;;;;17.67;8.53;;;;;;;17.63;98.56;100101.53;5091147;28;20174;-68
2021/06/30 01:36:18;;;;;;;13.43;8.57;;;;;;;17.72;97.25;100095.31;5091965;28;20190;-68
2021/06/30 01:38:43;;;;;;;15.13;8.67;;;;;;;17.77;96.22;100084.06;5091943;28;20174;-67
2021/06/30 01:41:11;;;;;;;20.23;9.57;;;;;;;17.64;97.43;100078.94;5090806;28;20223;-68
2021/06/30 01:43:36;;;;;;;15.73;9.37;;;;;;;17.57;99.00;100082.38;5091930;28;20200;-68
2021/06/30 01:46:02;;;;;;;21.53;9.80;;;;;;;17.59;99.58;100075.00;5091953;28;20190;-68
2021/06/30 01:48:27;;;;;;;18.33;10.00;;;;;;;17.55;99.53;100070.88;5091939;28;20174;-68
2021/06/30 01:50:53;;;;;;;16.83;9.23;;;;;;;17.52;99.07;100054.97;5092122;28;20178;-68
2021/06/30 01:53:19;;;;;;;15.93;9.37;;;;;;;17.49;99.17;100058.81;5073657;28;20167;-68
2021/06/30 01:55:44;;;;;;;22.33;10.23;;;;;;;17.41;99.68;100059.50;5090777;28;20194;-68
2021/06/30 01:58:09;;;;;;;18.27;10.23;;;;;;;17.32;100.00;100056.84;5092105;28;20531;-68
2021/06/30 02:00:35;;;;;;;21.07;10.40;;;;;;;17.27;100.00;100057.28;5092399;28;20219;-69
2021/06/30 02:03:01;;;;;;;18.53;9.83;;;;;;;17.33;100.00;100061.22;5090461;28;20194;-68
2021/06/30 02:05:26;;;;;;;17.63;9.90;;;;;;;17.29;99.94;100060.66;5073469;28;20166;-68
2021/06/30 02:07:54;;;;;;;16.10;9.43;;;;;;;17.26;100.00;100071.75;5090258;28;20174;-68
2021/06/30 02:10:21;;;;;;;21.33;10.10;;;;;;;17.31;99.89;100064.06;5091655;28;20634;-68
2021/06/30 02:12:47;;;;;;;17.97;9.80;;;;;;;17.35;99.98;100062.78;5090378;28;20572;-68
2021/06/30 02:15:14;;;;;;;17.23;9.37;;;;;;;17.42;98.87;100058.53;5094577;28;20254;-68
2021/06/30 02:17:39;;;;;;;16.88;8.65;;;;;;;17.47;98.32;100047.31;5061204;28;993240;-68
2021/06/30 02:20:07;;;;;;;20.13;8.80;;;;;;;17.42;98.37;100050.44;5094875;28;20174;-68
2021/06/30 02:22:32;;;;;;;16.27;9.30;;;;;;;17.29;99.65;100054.44;5095911;28;20194;-68
2021/06/30 02:24:58;;;;;;;19.50;9.10;;;;;;;17.26;100.00;100065.50;5096086;28;20182;-68
2021/06/30 02:27:24;;;;;;;17.33;10.10;;;;;;;17.25;100.00;100064.66;5094720;28;20219;-69
2021/06/30 02:29:49;;;;;;;27.90;9.60;;;;;;;17.19;100.00;100060.69;5095914;28;20240;-69
2021/06/30 02:32:15;;;;;;;24.87;9.53;;;;;;;17.25;100.00;100055.72;5095877;28;20167;-68
2021/06/30 02:34:40;;;;;;;24.10;9.47;;;;;;;17.30;99.80;100048.03;5094510;28;20224;-68
2021/06/30 02:37:05;;;;;;;21.00;9.17;;;;;;;17.35;99.26;100043.91;5094537;28;20238;-68
2021/06/30 02:39:31;;;;;;;22.57;9.37;;;;;;;17.23;100.00;100046.91;5096205;28;20227;-68
2021/06/30 02:41:56;;;;;;;35.47;9.87;;;;;;;17.19;100.00;100049.03;5095633;28;20201;-68
2021/06/30 02:44:21;;;;;;;21.80;9.77;;;;;;;17.22;100.00;100050.59;5094475;28;20197;-68
2021/06/30 02:46:47;;;;;;;31.73;10.00;;;;;;;17.28;99.42;100042.78;5095627;28;20596;-68
2021/06/30 02:49:12;;;;;;;20.27;8.87;;;;;;;17.36;98.43;100039.38;5095747;28;20305;-68
2021/06/30 02:51:37;;;;;;;24.23;9.30;;;;;;;17.33;97.41;100039.66;5095364;28;20167;-68
2021/06/30 02:54:03;;;;;;;26.03;10.67;;;;;;;17.23;98.71;100033.44;5095373;28;20182;-68
2021/06/30 02:56:28;;;;;;;24.17;9.57;;;;;;;17.15;99.14;100034.16;5095508;28;20205;-68
2021/06/30 02:58:53;;;;;;;24.70;9.27;;;;;;;17.11;99.37;100030.88;5095306;28;20530;-67
2021/06/30 03:01:18;;;;;;;19.57;9.57;;;;;;;17.07;99.89;100026.75;5094182;28;20219;-68
2021/06/30 03:03:44;;;;;;;21.07;10.27;;;;;;;16.99;100.00;100034.69;5093679;28;20201;-67
2021/06/30 03:06:10;;;;;;;21.80;9.97;;;;;;;16.99;100.00;100036.53;5094297;28;20198;-69
2021/06/30 03:08:35;;;;;;;20.83;9.57;;;;;;;16.96;100.00;100037.69;5095142;28;20257;-68
2021/06/30 03:11:01;;;;;;;19.50;10.10;;;;;;;16.96;100.00;100053.84;5093721;28;20205;-68
2021/06/30 03:13:26;;;;;;;21.93;10.47;;;;;;;16.94;100.00;100045.06;5095151;28;20171;-68
2021/06/30 03:15:51;;;;;;;20.87;9.77;;;;;;;16.99;100.00;100048.19;5094838;28;20209;-69
2021/06/30 03:18:18;;;;;;;28.23;10.43;;;;;;;17.00;100.00;100055.28;5094055;28;20159;-68
2021/06/30 03:20:43;;;;;;;27.87;9.97;;;;;;;16.99;100.00;100041.94;5093908;28;20171;-69
2021/06/30 03:23:09;;;;;;;27.97;10.27;;;;;;;17.02;100.00;100049.72;5095290;28;20202;-68
2021/06/30 03:25:34;;;;;;;27.40;9.90;;;;;;;17.09;100.00;100049.03;5092597;28;20641;-69
2021/06/30 03:27:59;;;;;;;24.50;9.73;;;;;;;17.16;100.00;100054.72;5094962;28;20175;-68
2021/06/30 03:30:24;;;;;;;30.90;9.67;;;;;;;17.24;100.00;100059.41;5093656;28;20177;-69
2021/06/30 03:32:50;;;;;;;25.60;9.53;;;;;;;17.25;99.83;100058.41;5095091;28;20512;-68
2021/06/30 03:35:15;;;;;;;28.00;10.50;;;;;;;17.30;99.43;100059.69;5093838;28;20181;-68
2021/06/30 03:37:41;;;;;;;25.13;9.07;;;;;;;17.37;99.28;100063.50;5094533;28;20182;-68
2021/06/30 03:40:07;;;;;;;25.10;9.10;;;;;;;17.45;98.54;100065.47;5095068;28;20174;-68
2021/06/30 03:42:32;;;;;;;21.53;9.33;;;;;;;17.55;97.50;100062.78;5094703;28;20198;-68
2021/06/30 03:44:57;;;;;;;33.10;10.07;;;;;;;17.61;97.19;100062.22;5093901;28;20188;-68
2021/06/30 03:47:22;;;;;;;21.73;8.33;;;;;;;17.55;97.89;100062.78;5094835;28;20653;-68
2021/06/30 03:49:48;;;;;;;23.73;8.40;;;;;;;17.53;97.43;100057.53;5094819;28;20174;-68
2021/06/30 03:52:13;;;;;;;26.67;8.90;;;;;;;17.61;97.22;100057.66;5093539;28;20538;-68
2021/06/30 03:54:38;;;;;;;18.40;8.00;;;;;;;17.73;96.20;100047.56;5094445;28;20166;-67
2021/06/30 03:57:04;;;;;;;23.83;9.43;;;;;;;17.86;95.03;100044.56;5094888;28;20233;-68
2021/06/30 03:59:29;;;;;;;27.23;9.47;;;;;;;17.89;94.04;100042.44;5094997;28;20174;-68
2021/06/30 04:01:54;;;;;;;29.67;8.73;;;;;;;17.83;94.84;100036.75;5095653;28;20649;-68
2021/06/30 04:04:20;;;;;;;31.53;9.13;;;;;;;17.75;95.30;100040.19;5101532;28;20174;-68
2021/06/30 04:06:46;;;;;;;29.50;9.10;;;;;;;17.71;95.81;100044.16;5102566;28;20212;-68
2021/06/30 04:09:11;;;;;;;30.27;9.67;;;;;;;17.80;94.96;100040.59;5098798;28;20236;-68
2021/06/30 04:11:37;;;;;;;29.60;9.50;;;;;;;17.78;95.09;100046.13;5096856;28;20173;-68
2021/06/30 04:14:02;;;;;;;27.00;9.53;;;;;;;17.77;95.44;100048.97;5097971;28;20328;-68
2021/06/30 04:16:28;;;;;;;30.97;10.43;;;;;;;17.69;96.41;100041.63;5122520;22;20225;-72
2021/06/30 04:18:53;;;;;;;23.63;11.57;;;;;;;17.60;97.68;100045.16;5097179;28;20170;-71
2021/06/30 04:21:18;;;;;;;24.30;11.00;;;;;;;17.74;96.99;100050.13;5080349;28;20177;-72
2021/06/30 04:23:43;;;;;;;25.80;13.20;;;;;;;17.79;96.97;100049.69;5115581;28;20204;-72
2021/06/30 04:26:09;;;;;;;23.70;9.67;;;;;;;17.88;96.79;100053.38;5080007;28;20197;-72
2021/06/30 04:28:34;;;;;;;27.40;11.17;;;;;;;17.96;96.05;100048.94;5080712;28;20545;-73
2021/06/30 04:31:00;;;;;;;17.40;9.73;;;;;;;18.04;95.67;100040.09;5081211;28;20181;-71
2021/06/30 04:33:25;;;;;;;34.23;11.30;;;;;;;18.06;95.99;100038.94;5081026;28;20177;-75
2021/06/30 04:35:50;;;;;;;27.60;10.23;;;;;;;18.16;95.52;100040.75;5080167;28;20342;-71
2021/06/30 04:38:16;;;;;;;30.90;11.10;;;;;;;18.26;95.34;100033.47;5081084;28;20174;-72
2021/06/30 04:40:41;;;;;;;19.73;10.40;;;;;;;18.28;95.86;100037.72;5081309;28;20188;-71
2021/06/30 04:43:06;;;;;;;35.83;11.53;;;;;;;18.25;96.21;100035.31;5098038;28;20208;-71
2021/06/30 04:45:32;;;;;;;31.73;11.60;;;;;;;18.35;96.37;100028.03;5080644;28;20182;-72
2021/06/30 04:47:57;;;;;;;31.00;11.77;;;;;;;18.42;95.40;100029.09;5079462;28;20612;-71
2021/06/30 04:50:22;;;;;;;22.10;12.37;;;;;;;18.47;95.33;100030.50;5096406;28;20269;-71
2021/06/30 04:52:48;;;;;;;28.77;13.57;;;;;;;18.40;95.59;100030.25;5079866;28;20170;-71
2021/06/30 04:55:13;;;;;;;23.87;12.40;;;;;;;18.42;95.96;100026.41;5098904;28;20224;-70
2021/06/30 04:57:38;;;;;;;26.70;12.47;;;;;;;18.38;96.52;100021.47;5098558;28;20232;-66
2021/06/30 05:00:09;;;;;;;27.97;12.73;;;;;;;18.49;96.24;100023.94;5095681;28;20176;-65
2021/06/30 05:02:34;;;;;;;24.13;13.73;;;;;;;18.58;96.07;100016.78;5095617;28;20194;-66
2021/06/30 05:05:00;;;;;;;23.43;13.33;;;;;;;18.57;95.63;100012.38;5095374;28;20230;-66
2021/06/30 05:07:25;;;;;;;25.93;14.43;;;;;;;18.67;95.21;100021.31;5078437;28;20189;-65
2021/06/30 05:09:50;;;;;;;26.33;14.17;;;;;;;18.78;95.08;100018.38;5095468;28;20181;-66
2021/06/30 05:12:16;;;;;;;18.40;13.93;;;;;;;18.82;94.89;100027.91;5095048;28;20633;-66
2021/06/30 05:14:41;;;;;;;30.13;15.10;;;;;;;18.94;94.39;100026.66;5113581;28;20169;-67
2021/06/30 05:17:06;;;;;;;22.33;13.60;;;;;;;19.14;93.86;100024.66;5095091;28;20236;-66
2021/06/30 05:19:32;;;;;;;26.70;15.97;;;;;;;19.19;93.01;100022.34;5095665;28;20617;-66
2021/06/30 05:21:57;;;;;;;20.97;15.73;;;;;;;19.32;92.41;100011.09;5095648;28;20706;-66
2021/06/30 05:24:25;;;;;;;22.27;14.43;;;;;;;19.64;90.61;100018.66;5095656;28;20586;-66
2021/06/30 05:26:51;;;;;;;21.57;14.07;;;;;;;19.75;90.31;100022.97;5078893;28;20220;-66
2021/06/30 05:29:16;;;;;;;22.97;13.67;;;;;;;19.87;90.04;100022.53;5095331;28;20641;-66
2021/06/30 05:31:41;;;;;;;18.73;13.30;;;;;;;20.02;89.56;100017.34;5113483;28;20208;-66
2021/06/30 05:34:07;;;;;;;20.80;13.90;;;;;;;20.11;88.64;100023.69;5095782;28;20678;-66
2021/06/30 05:36:32;;;;;;;24.03;16.17;;;;;;;20.05;87.42;100019.72;5095345;28;20217;-66
2021/06/30 05:38:57;;;;;;;30.43;16.83;;;;;;;19.91;88.94;100014.94;5095471;28;20589;-66
2021/06/30 05:41:23;;;;;;;27.10;14.80;;;;;;;19.99;89.31;100014.97;5095154;28;20174;-66
2021/06/30 05:43:48;;;;;;;26.07;15.10;;;;;;;20.21;89.00;100006.28;5095233;28;20216;-66
2021/06/30 05:46:13;;;;;;;29.13;15.87;;;;;;;20.27;87.78;100008.34;5095285;28;20241;-67
2021/06/30 05:48:39;;;;;;;28.07;17.33;;;;;;;20.16;88.57;100003.22;5096344;28;20174;-71
2021/06/30 05:51:06;;;;;;;26.23;15.87;;;;;;;20.24;88.41;100000.53;5082116;28;20523;-71
2021/06/30 05:53:31;;;;;;;24.00;16.30;;;;;;;20.25;88.28;100001.38;5082383;28;20265;-71
2021/06/30 05:55:56;;;;;;;25.13;18.30;;;;;;;20.26;87.62;100006.63;5098897;28;20188;-71
2021/06/30 05:58:22;;;;;;;32.33;18.80;;;;;;;20.36;87.52;100001.06;5099004;28;20170;-70
2021/06/30 06:00:47;;;;;;;27.47;18.77;;;;;;;20.23;87.60;99993.41;5082585;28;20184;-71
2021/06/30 06:03:12;;;;;;;24.60;18.13;;;;;;;20.25;88.31;99998.66;5098823;28;20197;-71
2021/06/30 06:05:38;;;;;;;27.80;18.40;;;;;;;20.39;87.77;99989.91;5098957;28;20638;-70
2021/06/30 06:08:03;;;;;;;23.40;17.10;;;;;;;20.61;86.09;99993.91;5098798;28;20202;-70
2021/06/30 06:10:29;;;;;;;29.60;16.60;;;;;;;20.77;86.10;99999.34;5081644;28;20213;-70
2021/06/30 06:12:54;;;;;;;24.47;17.90;;;;;;;20.85;84.99;100002.09;5081709;28;20181;-70
2021/06/30 06:15:19;;;;;;;32.20;18.60;;;;;;;20.90;84.54;99990.75;5081640;28;20178;-71
2021/06/30 06:17:45;;;;;;;24.07;18.47;;;;;;;21.06;84.13;99993.47;5098355;28;20205;-70
2021/06/30 06:20:12;;;;;;;30.40;20.50;;;;;;;21.15;83.33;99995.16;5099403;28;20196;-71
2021/06/30 06:22:37;;;;;;;30.27;19.70;;;;;;;21.28;83.47;99996.56;5081442;28;20201;-70
2021/06/30 06:25:04;;;;;;;26.40;20.10;;;;;;;21.46;82.48;99995.34;5081709;28;20169;-71
2021/06/30 06:27:29;;;;;;;27.30;20.77;;;;;;;21.35;83.04;99997.56;5098427;28;20204;-71
2021/06/30 06:29:55;;;;;;;24.63;20.27;;;;;;;21.47;82.17;99998.91;5098750;28;20178;-71
2021/06/30 06:32:20;;;;;;;31.07;21.47;;;;;;;21.34;82.01;100001.31;5098435;28;20177;-70
2021/06/30 06:34:46;;;;;;;26.77;20.97;;;;;;;21.11;83.94;100017.38;5081060;28;20178;-70
2021/06/30 06:37:12;;;;;;;27.47;21.73;;;;;;;21.07;83.46;100014.16;5081093;28;20246;-70
2021/06/30 06:39:38;;;;;;;30.80;22.37;;;;;;;20.92;84.87;100013.97;5098450;28;20170;-70
2021/06/30 06:42:03;;;;;;;32.10;22.43;;;;;;;21.02;84.78;100027.38;5098092;28;20334;-71
2021/06/30 06:44:29;;;;;;;23.60;19.93;;;;;;;21.02;85.00;100026.53;5098353;28;20187;-71
2021/06/30 06:46:54;;;;;;;31.70;22.73;;;;;;;21.06;84.64;100019.75;5098107;28;20193;-71
2021/06/30 06:49:19;;;;;;;29.37;23.80;;;;;;;20.94;84.54;100021.09;5098076;28;20222;-71
2021/06/30 06:51:45;;;;;;;34.97;24.87;;;;;;;20.80;85.80;100012.56;5081066;28;20174;-71
2021/06/30 06:54:10;;;;;;;29.70;22.83;;;;;;;20.97;85.15;100009.91;5098043;28;20173;-71
2021/06/30 06:56:36;;;;;;;31.63;24.07;;;;;;;20.96;84.39;100005.50;5080754;28;20198;-70
2021/06/30 06:59:01;;;;;;;32.90;24.97;;;;;;;21.08;84.28;100002.28;5080642;28;20178;-71
2021/06/30 07:01:27;;;;;;;23.50;20.50;;;;;;;21.30;83.09;100006.22;5096369;28;20169;-71
2021/06/30 07:03:52;;;;;;;36.20;23.20;;;;;;;21.48;82.77;100006.03;5097457;28;20186;-70
2021/06/30 07:06:18;;;;;;;32.20;23.70;;;;;;;21.77;80.60;100003.63;5097799;28;20201;-71
2021/06/30 07:08:43;;;;;;;27.73;23.00;;;;;;;21.99;79.95;99999.34;5097533;28;20223;-71
2021/06/30 07:11:09;;;;;;;28.83;22.07;;;;;;;21.99;79.24;100001.19;5097376;28;20176;-70
2021/06/30 07:13:35;;;;;;;27.47;22.80;;;;;;;22.08;78.13;100003.75;5097515;28;20173;-70
2021/06/30 07:16:01;;;;;;;30.47;22.30;;;;;;;22.10;78.58;100009.84;5080036;28;20188;-71
2021/06/30 07:18:26;;;;;;;30.53;23.40;;;;;;;21.86;78.99;100009.88;5097324;28;20166;-71
2021/06/30 07:20:52;;;;;;;29.20;24.03;;;;;;;21.89;78.91;100001.38;5080440;28;20177;-71
2021/06/30 07:23:17;;;;;;;32.53;24.63;;;;;;;21.53;80.16;99995.50;5097372;28;20665;-70
2021/06/30 07:25:42;;;;;;;27.73;22.03;;;;;;;21.51;81.21;99986.69;5080330;28;20268;-70
2021/06/30 07:28:08;;;;;;;30.80;22.40;;;;;;;21.57;80.69;99994.19;5097160;28;20193;-70
2021/06/30 07:30:34;;;;;;;31.57;24.40;;;;;;;21.38;80.73;99998.09;5080006;28;20208;-70
2021/06/30 07:33:00;;;;;;;31.50;23.67;;;;;;;21.39;81.62;99999.78;5080602;28;20223;-71
2021/06/30 07:35:25;;;;;;;34.73;23.93;;;;;;;21.40;80.66;99998.75;5100342;28;20182;-71
2021/06/30 07:37:51;;;;;;;28.73;23.63;;;;;;;21.39;81.04;99993.50;5099526;28;20197;-71
2021/06/30 07:40:16;;;;;;;30.23;24.80;;;;;;;21.20;81.73;100000.09;5099145;28;20546;-71
2021/06/30 07:42:42;;;;;;;29.03;24.00;;;;;;;21.30;80.85;99997.25;5081720;28;20676;-69
2021/06/30 07:45:08;;;;;;;30.93;23.87;;;;;;;21.41;80.81;99992.31;5079962;28;20169;-70
2021/06/30 07:47:33;;;;;;;24.60;21.10;;;;;;;21.60;79.48;99990.25;5096691;28;20189;-70
2021/06/30 07:50:00;;;;;;;25.60;22.20;;;;;;;21.69;78.67;99989.22;5096704;28;20173;-70
2021/06/30 07:52:26;;;;;;;29.07;23.13;;;;;;;21.94;78.30;99990.00;5080351;28;20633;-69
2021/06/30 07:54:51;;;;;;;32.23;24.37;;;;;;;21.57;80.53;99986.03;5079732;28;20192;-70
2021/06/30 07:57:16;;;;;;;26.83;22.27;;;;;;;21.88;79.30;99990.69;5096859;28;20189;-71
2021/06/30 07:59:41;;;;;;;28.00;23.03;;;;;;;21.92;78.01;99995.59;5114962;28;20177;-72
2021/06/30 08:02:07;;;;;;;32.20;24.80;;;;;;;21.79;79.02;99981.72;5080063;28;20235;-71
2021/06/30 08:04:32;;;;;;;28.80;20.90;;;;;;;22.13;78.76;99992.34;5080172;28;20174;-72
2021/06/30 08:06:57;;;;;;;31.00;22.60;;;;;;;22.44;76.53;99990.50;5079778;28;20229;-71
2021/06/30 08:09:23;;;;;;;30.70;22.03;;;;;;;22.67;75.63;99990.56;5096790;28;20664;-71
2021/06/30 08:11:48;;;;;;;29.03;20.07;;;;;;;22.62;75.89;99997.53;5096765;28;20630;-70
2021/06/30 08:14:13;;;;;;;24.20;21.30;;;;;;;22.86;74.21;99993.84;5097198;28;20188;-72
2021/06/30 08:16:39;;;;;;;21.13;17.93;;;;;;;22.99;74.14;99980.50;5096781;28;20201;-71
2021/06/30 08:19:05;;;;;;;27.47;20.50;;;;;;;22.96;73.16;99981.69;5080215;28;20249;-70
2021/06/30 08:21:30;;;;;;;27.80;22.07;;;;;;;22.50;73.90;99986.22;5097031;28;20170;-71
2021/06/30 08:23:55;;;;;;;23.47;19.63;;;;;;;22.35;75.20;99974.41;5096696;28;20631;-70
2021/06/30 08:26:21;;;;;;;32.17;22.00;;;;;;;22.37;75.51;99975.09;5079465;28;20193;-70
2021/06/30 08:28:47;;;;;;;25.17;22.03;;;;;;;22.24;75.48;99974.78;5096878;28;20193;-70
2021/06/30 08:31:13;;;;;;;22.37;19.57;;;;;;;22.45;75.08;99978.59;5096609;28;20169;-70
2021/06/30 08:33:38;;;;;;;26.60;20.40;;;;;;;22.67;74.89;99979.69;5079479;28;20169;-71
2021/06/30 08:36:04;;;;;;;26.20;20.33;;;;;;;23.16;71.41;99982.06;5096727;28;20180;-71
2021/06/30 08:38:29;;;;;;;28.80;21.20;;;;;;;23.10;71.59;99977.38;5096490;28;20218;-71
2021/06/30 08:40:55;;;;;;;21.47;18.77;;;;;;;;;;5078641;28;20248;-72
2021/06/30 08:43:20;;;;;;;24.57;20.47;;;;;;;22.90;74.04;99979.72;5113821;28;20198;-70
2021/06/30 08:45:46;;;;;;;27.00;21.17;;;;;;;23.00;72.89;99980.31;5078924;28;20180;-71
2021/06/30 08:48:11;;;;;;;21.50;17.30;;;;;;;23.54;71.28;99988.38;5078867;28;20203;-70
2021/06/30 08:50:40;;;;;;;22.67;19.50;;;;;;;23.72;70.04;99995.34;5095986;28;20170;-70
2021/06/30 08:53:09;;;;;;;22.73;20.30;;;;;;;24.02;69.10;99981.56;5078796;28;20336;-70
2021/06/30 08:55:36;;;;;;;23.27;20.27;;;;;;;23.11;72.07;99981.78;5078934;28;20177;-70
2021/06/30 08:58:02;;;;;;;22.73;19.37;;;;;;;23.65;71.19;99977.03;5078593;28;20292;-69
2021/06/30 09:00:27;;;;;;;23.10;19.07;;;;;;;23.36;71.13;99977.78;5078539;28;20201;-70
2021/06/30 09:02:57;;;;;;;23.03;19.17;;;;;;;23.64;70.32;99969.06;5078542;28;20303;-71
2021/06/30 09:07:50;;;;;;;23.63;19.53;;;;;;;23.69;69.53;99969.34;5095934;28;20189;-70
2021/06/30 09:10:35;;;;;;;26.50;19.03;;;;;;;23.85;68.85;99960.16;5078605;28;20192;-71
2021/06/30 09:13:03;;;;;;;24.93;18.30;;;;;;;23.65;70.27;99973.47;5078219;28;20253;-71
2021/06/30 09:15:31;;;;;;;29.20;20.00;;;;;;;22.89;71.99;99974.44;5095215;28;20523;-70
2021/06/30 09:18:16;;;;;;;22.70;18.37;;;;;;;23.59;70.15;99976.94;5078520;28;20578;-70
2021/06/30 09:20:41;;;;;;;25.57;19.77;;;;;;;22.82;73.67;99971.63;5078463;28;20177;-71
2021/06/30 09:23:06;;;;;;;28.03;19.07;;;;;;;23.39;70.21;99971.97;5095196;28;20196;-71
2021/06/30 09:25:34;;;;;;;24.33;19.20;;;;;;;22.71;73.64;99982.88;5082197;28;20200;-71
2021/06/30 09:28:12;;;;;;;25.60;20.47;;;;;;;22.77;74.23;99983.00;5082738;28;20201;-72
2021/06/30 09:30:54;;;;;;;20.87;18.03;;;;;;;23.50;71.36;99991.66;5101163;28;20302;-71
2021/06/30 09:33:19;;;;;;;24.70;17.10;;;;;;;23.63;71.00;99980.97;5102837;28;20602;-71
2021/06/30 09:35:44;;;;;;;25.50;18.73;;;;;;;23.57;70.11;99970.84;5101219;28;20169;-71
2021/06/30 09:38:30;;;;;;;27.03;19.03;;;;;;;23.28;71.11;99975.16;5100095;28;20193;-70
2021/06/30 09:40:55;;;;;;;26.53;17.40;;;;;;;23.44;70.58;99982.34;5099441;28;20161;-70
2021/06/30 09:43:32;;;;;;;23.67;18.83;;;;;;;23.10;71.94;99980.09;5099443;28;20668;-70
2021/06/30 09:46:00;;;;;;;20.10;17.13;;;;;;;23.07;70.69;99975.00;5082853;28;20195;-71
2021/06/30 09:48:27;;;;;;;22.53;17.10;;;;;;;22.92;70.82;99972.22;5082004;28;20169;-71
2021/06/30 09:50:53;;;;;;;16.47;13.90;;;;;;;23.52;67.48;99975.97;5099209;28;20217;-70
2021/06/30 09:53:31;;;;;;;14.97;13.03;;;;;;;23.73;67.05;99981.56;5099259;28;20222;-70
2021/06/30 09:56:32;;;;;;;18.80;15.93;;;;;;;22.83;69.78;99978.75;5098804;28;20172;-70
2021/06/30 09:59:13;;;;;;;20.10;14.90;;;;;;;23.06;70.01;99973.31;5084773;28;20690;-73
2021/06/30 10:01:39;;;;;;;18.77;16.77;;;;;;;22.54;72.59;99973.13;5118095;28;20245;-73
2021/06/30 10:04:05;;;;;;;18.43;16.43;;;;;;;22.83;71.87;99969.75;5100424;28;20667;-73
2021/06/30 10:06:35;;;;;;;22.87;16.77;;;;;;;22.67;72.18;99960.66;5118814;28;20697;-73
2021/06/30 10:09:04;;;;;;;16.93;14.97;;;;;;;22.68;71.60;99966.94;5084864;28;20667;-71
2021/06/30 10:11:30;;;;;;;21.37;15.60;;;;;;;22.64;73.26;99957.41;5106031;28;20256;-71
2021/06/30 10:13:56;;;;;;;19.33;15.37;;;;;;;22.24;75.09;99966.63;5092238;28;20205;-73
2021/06/30 10:18:56;;;;;;;20.70;17.30;;;;;;;22.05;76.77;99968.78;5116126;28;20209;-70
2021/06/30 10:21:30;;;;;;;20.70;15.27;;;;;;;22.21;77.01;99972.44;5098579;28;20177;-70
2021/06/30 10:23:55;;;;;;;18.53;15.17;;;;;;;22.38;76.05;99969.47;5099245;28;20543;-70
2021/06/30 10:26:21;;;;;;;16.97;15.20;;;;;;;22.35;74.02;99958.97;5098568;28;20169;-70
2021/06/30 10:28:56;;;;;;;19.77;15.00;;;;;;;22.13;75.06;99960.56;5081580;28;20556;-70
2021/06/30 10:31:22;;;;;;;16.07;14.37;;;;;;;22.24;74.30;99953.91;5098851;28;20215;-70
2021/06/30 10:33:59;;;;;;;15.73;14.00;;;;;;;21.83;74.95;99942.31;5117258;28;20193;-69
2021/06/30 10:36:48;;;;;;;15.00;12.07;;;;;;;21.81;74.79;99949.78;5098172;28;20178;-70
2021/06/30 10:39:15;;;;;;;18.00;12.37;;;;;;;21.76;74.78;99946.75;5098946;28;20230;-69
2021/06/30 10:41:54;;;;;;;18.87;12.10;;;;;;;21.58;75.19;99943.44;5116668;28;20166;-69
2021/06/30 10:44:25;;;;;;;15.90;12.00;;;;;;;21.70;75.11;99945.59;5099135;28;20567;-69
2021/06/30 10:46:52;;;;;;;19.73;12.17;;;;;;;21.83;74.72;99945.03;5098609;28;20218;-69
2021/06/30 10:49:25;;;;;;;14.70;12.17;;;;;;;21.94;74.84;99933.81;5102088;28;20264;-70
2021/06/30 10:51:56;;;;;;;19.80;12.13;;;;;;;21.83;75.51;99931.47;5084296;28;20182;-69
2021/06/30 10:54:33;;;;;;;18.17;12.57;;;;;;;21.69;77.00;99924.06;5117464;28;20196;-69
2021/06/30 10:57:20;;;;;;;15.90;12.53;;;;;;;21.23;79.07;99926.53;5116674;28;20189;-69
2021/06/30 11:00:01;;;;;;;14.77;13.17;;;;;;;21.11;81.41;99925.13;5117152;28;20169;-69
2021/06/30 11:02:27;;;;;;;15.87;14.00;;;;;;;21.01;82.63;99919.88;5116782;28;20250;-70
2021/06/30 11:04:52;;;;;;;20.63;13.97;;;;;;;21.05;82.82;99920.38;5098324;28;20184;-69
2021/06/30 11:07:34;;;;;;;18.97;14.60;;;;;;;21.03;83.85;99919.72;5098145;28;20561;-70
2021/06/30 11:10:22;;;;;;;19.10;15.57;;;;;;;20.95;84.52;99920.56;5080822;28;20181;-69
2021/06/30 11:12:51;;;;;;;16.73;14.77;;;;;;;21.14;83.91;99914.78;5116066;28;20174;-69
2021/06/30 11:15:39;;;;;;;17.57;13.20;;;;;;;21.37;83.76;99914.09;5116259;28;20186;-70
2021/06/30 11:18:13;;;;;;;15.63;13.23;;;;;;;21.65;82.55;99915.41;5097599;28;20205;-68